sensor_id;sensor_type;location;lat;lon;timestamp;P1;durP1;ratioP1;P2;durP2;ratioP2
11078;SDS011;5592;49.234;7.268;2023-06-14T00:01:50;15.60;;;5.33;;
11078;SDS011;5592;49.234;7.268;2023-06-14T00:04:15;5.23;;;4.70;;
11078;SDS011;5592;49.234;7.268;2023-06-14T00:06:41;8.53;;;4.73;;
11078;SDS011;5592;49.234;7.268;2023-06-14T00:09:10;5.87;;;4.80;;
11078;SDS011;5592;49.234;7.268;2023-06-14T00:11:37;7.57;;;5.33;;
11078;SDS011;5592;49.234;7.268;2023-06-14T00:14:03;6.80;;;5.07;;
11078;SDS011;5592;49.234;7.268;2023-06-14T00:16:29;7.00;;;5.50;;
11078;SDS011;5592;49.234;7.268;2023-06-14T00:18:55;5.20;;;4.70;;
11078;SDS011;5592;49.234;7.268;2023-06-14T00:21:21;5.07;;;4.53;;
11078;SDS011;5592;49.234;7.268;2023-06-14T00:23:49;7.10;;;5.17;;
11078;SDS011;5592;49.234;7.268;2023-06-14T00:26:15;7.30;;;5.57;;
11078;SDS011;5592;49.234;7.268;2023-06-14T00:28:41;5.67;;;4.97;;
11078;SDS011;5592;49.234;7.268;2023-06-14T00:31:06;6.33;;;4.63;;
11078;SDS011;5592;49.234;7.268;2023-06-14T00:33:32;5.20;;;4.67;;
11078;SDS011;5592;49.234;7.268;2023-06-14T00:35:58;11.37;;;6.23;;
11078;SDS011;5592;49.234;7.268;2023-06-14T00:38:23;9.03;;;5.50;;
11078;SDS011;5592;49.234;7.268;2023-06-14T00:40:49;10.20;;;5.20;;
11078;SDS011;5592;49.234;7.268;2023-06-14T00:43:14;9.50;;;5.27;;
11078;SDS011;5592;49.234;7.268;2023-06-14T00:45:40;5.30;;;4.67;;
11078;SDS011;5592;49.234;7.268;2023-06-14T00:48:06;11.60;;;5.30;;
11078;SDS011;5592;49.234;7.268;2023-06-14T00:50:34;8.23;;;5.73;;
11078;SDS011;5592;49.234;7.268;2023-06-14T00:53:01;7.20;;;4.80;;
11078;SDS011;5592;49.234;7.268;2023-06-14T00:55:28;9.53;;;4.97;;
11078;SDS011;5592;49.234;7.268;2023-06-14T00:57:54;7.20;;;5.90;;
11078;SDS011;5592;49.234;7.268;2023-06-14T01:00:20;8.63;;;5.43;;
11078;SDS011;5592;49.234;7.268;2023-06-14T01:02:46;8.23;;;5.83;;
11078;SDS011;5592;49.234;7.268;2023-06-14T01:05:12;6.50;;;5.87;;
11078;SDS011;5592;49.234;7.268;2023-06-14T01:13:37;8.07;;;5.47;;
11078;SDS011;5592;49.234;7.268;2023-06-14T01:16:06;6.27;;;5.37;;
11078;SDS011;5592;49.234;7.268;2023-06-14T01:18:33;7.80;;;4.80;;
11078;SDS011;5592;49.234;7.268;2023-06-14T01:20:59;9.27;;;5.60;;
11078;SDS011;5592;49.234;7.268;2023-06-14T01:23:30;9.10;;;6.10;;
11078;SDS011;5592;49.234;7.268;2023-06-14T01:25:58;5.90;;;5.23;;
11078;SDS011;5592;49.234;7.268;2023-06-14T01:28:25;6.90;;;5.03;;
11078;SDS011;5592;49.234;7.268;2023-06-14T01:30:57;7.10;;;5.40;;
11078;SDS011;5592;49.234;7.268;2023-06-14T01:33:28;7.20;;;6.27;;
11078;SDS011;5592;49.234;7.268;2023-06-14T01:35:55;8.63;;;5.60;;
11078;SDS011;5592;49.234;7.268;2023-06-14T01:38:22;8.30;;;5.53;;
11078;SDS011;5592;49.234;7.268;2023-06-14T01:40:50;7.87;;;5.63;;
11078;SDS011;5592;49.234;7.268;2023-06-14T01:43:18;5.97;;;5.30;;
11078;SDS011;5592;49.234;7.268;2023-06-14T01:45:45;6.90;;;4.83;;
11078;SDS011;5592;49.234;7.268;2023-06-14T01:48:13;6.50;;;5.47;;
11078;SDS011;5592;49.234;7.268;2023-06-14T01:50:40;7.00;;;5.23;;
11078;SDS011;5592;49.234;7.268;2023-06-14T01:53:09;8.97;;;5.90;;
11078;SDS011;5592;49.234;7.268;2023-06-14T01:55:35;8.40;;;5.80;;
11078;SDS011;5592;49.234;7.268;2023-06-14T01:58:08;8.87;;;5.60;;
11078;SDS011;5592;49.234;7.268;2023-06-14T02:00:34;7.43;;;5.57;;
11078;SDS011;5592;49.234;7.268;2023-06-14T02:03:00;7.80;;;5.97;;
11078;SDS011;5592;49.234;7.268;2023-06-14T02:05:27;7.40;;;6.20;;
11078;SDS011;5592;49.234;7.268;2023-06-14T02:07:52;7.33;;;5.43;;
11078;SDS011;5592;49.234;7.268;2023-06-14T02:10:18;7.37;;;4.83;;
11078;SDS011;5592;49.234;7.268;2023-06-14T02:12:44;8.70;;;5.83;;
11078;SDS011;5592;49.234;7.268;2023-06-14T02:15:10;8.07;;;5.80;;
11078;SDS011;5592;49.234;7.268;2023-06-14T02:17:45;7.73;;;5.30;;
11078;SDS011;5592;49.234;7.268;2023-06-14T02:20:12;7.17;;;5.30;;
11078;SDS011;5592;49.234;7.268;2023-06-14T02:22:37;6.40;;;5.57;;
11078;SDS011;5592;49.234;7.268;2023-06-14T02:25:03;6.30;;;5.70;;
11078;SDS011;5592;49.234;7.268;2023-06-14T02:27:29;8.00;;;5.80;;
11078;SDS011;5592;49.234;7.268;2023-06-14T02:29:54;11.00;;;5.87;;
11078;SDS011;5592;49.234;7.268;2023-06-14T02:32:20;6.67;;;5.63;;
11078;SDS011;5592;49.234;7.268;2023-06-14T02:34:45;7.97;;;6.53;;
11078;SDS011;5592;49.234;7.268;2023-06-14T02:37:15;6.50;;;5.67;;
11078;SDS011;5592;49.234;7.268;2023-06-14T02:39:41;7.60;;;5.90;;
11078;SDS011;5592;49.234;7.268;2023-06-14T02:42:07;9.47;;;5.97;;
11078;SDS011;5592;49.234;7.268;2023-06-14T02:44:32;9.53;;;5.63;;
11078;SDS011;5592;49.234;7.268;2023-06-14T02:46:58;7.47;;;6.33;;
11078;SDS011;5592;49.234;7.268;2023-06-14T02:49:25;6.67;;;5.80;;
11078;SDS011;5592;49.234;7.268;2023-06-14T02:51:51;10.83;;;5.93;;
11078;SDS011;5592;49.234;7.268;2023-06-14T02:54:16;7.17;;;6.20;;
11078;SDS011;5592;49.234;7.268;2023-06-14T02:56:42;7.93;;;6.50;;
11078;SDS011;5592;49.234;7.268;2023-06-14T02:59:08;6.30;;;5.63;;
11078;SDS011;5592;49.234;7.268;2023-06-14T03:01:38;6.80;;;5.33;;
11078;SDS011;5592;49.234;7.268;2023-06-14T03:04:07;7.63;;;6.00;;
11078;SDS011;5592;49.234;7.268;2023-06-14T03:06:33;7.30;;;6.47;;
11078;SDS011;5592;49.234;7.268;2023-06-14T03:08:59;7.40;;;5.93;;
11078;SDS011;5592;49.234;7.268;2023-06-14T03:11:26;9.80;;;6.03;;
11078;SDS011;5592;49.234;7.268;2023-06-14T03:13:52;9.63;;;6.47;;
11078;SDS011;5592;49.234;7.268;2023-06-14T03:16:18;7.53;;;6.73;;
11078;SDS011;5592;49.234;7.268;2023-06-14T03:18:45;7.30;;;6.53;;
11078;SDS011;5592;49.234;7.268;2023-06-14T03:21:10;8.73;;;6.70;;
11078;SDS011;5592;49.234;7.268;2023-06-14T03:23:36;8.30;;;6.70;;
11078;SDS011;5592;49.234;7.268;2023-06-14T03:26:02;7.30;;;6.60;;
11078;SDS011;5592;49.234;7.268;2023-06-14T03:28:27;7.63;;;6.53;;
11078;SDS011;5592;49.234;7.268;2023-06-14T03:30:53;7.23;;;6.23;;
11078;SDS011;5592;49.234;7.268;2023-06-14T03:33:18;7.00;;;6.30;;
11078;SDS011;5592;49.234;7.268;2023-06-14T03:35:44;9.67;;;6.47;;
11078;SDS011;5592;49.234;7.268;2023-06-14T03:38:10;8.67;;;6.50;;
11078;SDS011;5592;49.234;7.268;2023-06-14T03:40:35;9.83;;;7.17;;
11078;SDS011;5592;49.234;7.268;2023-06-14T03:43:04;8.70;;;7.57;;
11078;SDS011;5592;49.234;7.268;2023-06-14T03:45:30;7.87;;;6.10;;
11078;SDS011;5592;49.234;7.268;2023-06-14T03:47:55;11.60;;;7.03;;
11078;SDS011;5592;49.234;7.268;2023-06-14T03:50:21;10.00;;;8.03;;
11078;SDS011;5592;49.234;7.268;2023-06-14T03:52:48;9.37;;;7.63;;
11078;SDS011;5592;49.234;7.268;2023-06-14T03:55:14;7.23;;;6.40;;
11078;SDS011;5592;49.234;7.268;2023-06-14T03:57:41;8.73;;;7.10;;
11078;SDS011;5592;49.234;7.268;2023-06-14T04:00:07;9.80;;;6.50;;
11078;SDS011;5592;49.234;7.268;2023-06-14T04:02:34;8.63;;;6.90;;
11078;SDS011;5592;49.234;7.268;2023-06-14T04:05:01;9.37;;;6.60;;
11078;SDS011;5592;49.234;7.268;2023-06-14T04:07:27;9.13;;;6.00;;
11078;SDS011;5592;49.234;7.268;2023-06-14T04:09:53;9.77;;;7.00;;
11078;SDS011;5592;49.234;7.268;2023-06-14T04:12:19;10.57;;;6.60;;
11078;SDS011;5592;49.234;7.268;2023-06-14T04:14:48;6.70;;;5.80;;
11078;SDS011;5592;49.234;7.268;2023-06-14T04:17:13;14.43;;;6.90;;
11078;SDS011;5592;49.234;7.268;2023-06-14T04:19:39;8.50;;;6.80;;
11078;SDS011;5592;49.234;7.268;2023-06-14T04:22:05;6.90;;;6.20;;
11078;SDS011;5592;49.234;7.268;2023-06-14T04:24:31;6.67;;;5.70;;
11078;SDS011;5592;49.234;7.268;2023-06-14T04:27:00;8.60;;;6.03;;
11078;SDS011;5592;49.234;7.268;2023-06-14T04:29:28;8.50;;;5.90;;
11078;SDS011;5592;49.234;7.268;2023-06-14T04:31:54;10.83;;;6.03;;
11078;SDS011;5592;49.234;7.268;2023-06-14T04:34:24;6.17;;;5.57;;
11078;SDS011;5592;49.234;7.268;2023-06-14T04:36:54;6.50;;;5.77;;
11078;SDS011;5592;49.234;7.268;2023-06-14T04:39:24;6.23;;;5.50;;
11078;SDS011;5592;49.234;7.268;2023-06-14T04:41:51;9.57;;;5.73;;
11078;SDS011;5592;49.234;7.268;2023-06-14T04:44:17;8.23;;;5.70;;
11078;SDS011;5592;49.234;7.268;2023-06-14T04:46:44;8.03;;;5.53;;
11078;SDS011;5592;49.234;7.268;2023-06-14T04:49:14;5.53;;;5.00;;
11078;SDS011;5592;49.234;7.268;2023-06-14T04:51:43;7.37;;;5.47;;
11078;SDS011;5592;49.234;7.268;2023-06-14T04:54:15;5.87;;;5.00;;
11078;SDS011;5592;49.234;7.268;2023-06-14T04:56:43;5.97;;;4.60;;
11078;SDS011;5592;49.234;7.268;2023-06-14T04:59:10;6.57;;;4.63;;
11078;SDS011;5592;49.234;7.268;2023-06-14T05:01:39;6.70;;;4.37;;
11078;SDS011;5592;49.234;7.268;2023-06-14T05:04:09;5.17;;;3.90;;
11078;SDS011;5592;49.234;7.268;2023-06-14T05:06:34;6.57;;;3.90;;
11078;SDS011;5592;49.234;7.268;2023-06-14T05:09:01;4.70;;;4.20;;
11078;SDS011;5592;49.234;7.268;2023-06-14T05:11:27;5.27;;;4.63;;
11078;SDS011;5592;49.234;7.268;2023-06-14T05:13:52;4.60;;;3.93;;
11078;SDS011;5592;49.234;7.268;2023-06-14T05:16:18;5.43;;;4.70;;
11078;SDS011;5592;49.234;7.268;2023-06-14T05:18:45;5.03;;;4.00;;
11078;SDS011;5592;49.234;7.268;2023-06-14T05:21:12;6.60;;;4.37;;
11078;SDS011;5592;49.234;7.268;2023-06-14T05:23:42;10.77;;;5.30;;
11078;SDS011;5592;49.234;7.268;2023-06-14T05:26:09;5.70;;;4.57;;
11078;SDS011;5592;49.234;7.268;2023-06-14T05:28:35;6.90;;;4.63;;
11078;SDS011;5592;49.234;7.268;2023-06-14T05:31:01;5.20;;;4.37;;
11078;SDS011;5592;49.234;7.268;2023-06-14T05:33:26;4.73;;;4.03;;
11078;SDS011;5592;49.234;7.268;2023-06-14T05:35:52;9.47;;;5.40;;
11078;SDS011;5592;49.234;7.268;2023-06-14T05:38:19;6.27;;;5.10;;
11078;SDS011;5592;49.234;7.268;2023-06-14T05:40:45;7.70;;;5.20;;
11078;SDS011;5592;49.234;7.268;2023-06-14T05:43:10;5.50;;;4.90;;
11078;SDS011;5592;49.234;7.268;2023-06-14T05:45:36;7.10;;;4.87;;
11078;SDS011;5592;49.234;7.268;2023-06-14T05:48:01;7.60;;;5.27;;
11078;SDS011;5592;49.234;7.268;2023-06-14T05:50:27;5.70;;;5.10;;
11078;SDS011;5592;49.234;7.268;2023-06-14T05:52:53;6.00;;;5.10;;
11078;SDS011;5592;49.234;7.268;2023-06-14T05:55:19;6.00;;;5.13;;
11078;SDS011;5592;49.234;7.268;2023-06-14T05:57:44;8.03;;;5.23;;
11078;SDS011;5592;49.234;7.268;2023-06-14T06:00:11;13.37;;;5.30;;
11078;SDS011;5592;49.234;7.268;2023-06-14T06:02:39;5.07;;;4.60;;
11078;SDS011;5592;49.234;7.268;2023-06-14T06:05:07;6.87;;;5.30;;
11078;SDS011;5592;49.234;7.268;2023-06-14T06:07:33;6.80;;;5.50;;
11078;SDS011;5592;49.234;7.268;2023-06-14T06:10:02;5.93;;;5.10;;
11078;SDS011;5592;49.234;7.268;2023-06-14T06:12:30;14.23;;;5.80;;
11078;SDS011;5592;49.234;7.268;2023-06-14T06:14:55;7.23;;;4.60;;
11078;SDS011;5592;49.234;7.268;2023-06-14T06:17:21;6.67;;;5.60;;
11078;SDS011;5592;49.234;7.268;2023-06-14T06:19:47;5.80;;;5.30;;
11078;SDS011;5592;49.234;7.268;2023-06-14T06:22:14;5.70;;;5.13;;
11078;SDS011;5592;49.234;7.268;2023-06-14T06:24:39;5.30;;;4.80;;
11078;SDS011;5592;49.234;7.268;2023-06-14T06:27:05;7.28;;;4.55;;
11078;SDS011;5592;49.234;7.268;2023-06-14T06:29:38;7.25;;;4.65;;
11078;SDS011;5592;49.234;7.268;2023-06-14T06:32:03;6.88;;;5.22;;
11078;SDS011;5592;49.234;7.268;2023-06-14T06:34:31;5.97;;;4.57;;
11078;SDS011;5592;49.234;7.268;2023-06-14T06:36:58;6.50;;;4.20;;
11078;SDS011;5592;49.234;7.268;2023-06-14T06:39:23;5.55;;;4.40;;
11078;SDS011;5592;49.234;7.268;2023-06-14T06:41:50;6.45;;;4.60;;
11078;SDS011;5592;49.234;7.268;2023-06-14T06:44:16;4.68;;;4.30;;
11078;SDS011;5592;49.234;7.268;2023-06-14T06:46:43;8.55;;;4.30;;
11078;SDS011;5592;49.234;7.268;2023-06-14T06:49:09;11.68;;;4.38;;
11078;SDS011;5592;49.234;7.268;2023-06-14T06:51:36;6.22;;;4.30;;
11078;SDS011;5592;49.234;7.268;2023-06-14T06:54:07;7.43;;;4.47;;
11078;SDS011;5592;49.234;7.268;2023-06-14T06:56:33;7.30;;;4.63;;
11078;SDS011;5592;49.234;7.268;2023-06-14T06:58:59;6.68;;;4.93;;
11078;SDS011;5592;49.234;7.268;2023-06-14T07:01:25;4.93;;;4.38;;
11078;SDS011;5592;49.234;7.268;2023-06-14T07:03:51;5.05;;;4.45;;
11078;SDS011;5592;49.234;7.268;2023-06-14T07:06:16;5.38;;;4.65;;
11078;SDS011;5592;49.234;7.268;2023-06-14T07:08:44;5.25;;;4.50;;
11078;SDS011;5592;49.234;7.268;2023-06-14T07:11:09;5.88;;;4.95;;
11078;SDS011;5592;49.234;7.268;2023-06-14T07:13:35;7.93;;;4.82;;
11078;SDS011;5592;49.234;7.268;2023-06-14T07:16:01;10.25;;;4.53;;
11078;SDS011;5592;49.234;7.268;2023-06-14T07:18:29;5.70;;;4.18;;
11078;SDS011;5592;49.234;7.268;2023-06-14T07:20:55;9.02;;;4.60;;
11078;SDS011;5592;49.234;7.268;2023-06-14T07:23:23;6.13;;;4.75;;
11078;SDS011;5592;49.234;7.268;2023-06-14T07:25:51;9.65;;;4.95;;
11078;SDS011;5592;49.234;7.268;2023-06-14T07:28:17;7.50;;;4.55;;
11078;SDS011;5592;49.234;7.268;2023-06-14T07:30:43;6.45;;;4.28;;
11078;SDS011;5592;49.234;7.268;2023-06-14T07:33:09;5.95;;;4.40;;
11078;SDS011;5592;49.234;7.268;2023-06-14T07:35:36;7.75;;;4.30;;
11078;SDS011;5592;49.234;7.268;2023-06-14T07:38:05;6.22;;;4.90;;
11078;SDS011;5592;49.234;7.268;2023-06-14T07:40:30;8.95;;;5.10;;
11078;SDS011;5592;49.234;7.268;2023-06-14T07:42:56;4.90;;;4.50;;
11078;SDS011;5592;49.234;7.268;2023-06-14T07:45:22;7.05;;;4.80;;
11078;SDS011;5592;49.234;7.268;2023-06-14T07:47:48;6.68;;;4.88;;
11078;SDS011;5592;49.234;7.268;2023-06-14T07:50:14;4.65;;;4.25;;
11078;SDS011;5592;49.234;7.268;2023-06-14T07:52:43;10.45;;;4.53;;
11078;SDS011;5592;49.234;7.268;2023-06-14T07:55:14;7.95;;;4.65;;
11078;SDS011;5592;49.234;7.268;2023-06-14T07:57:42;9.48;;;5.18;;
11078;SDS011;5592;49.234;7.268;2023-06-14T08:00:10;4.95;;;4.55;;
11078;SDS011;5592;49.234;7.268;2023-06-14T08:02:40;5.75;;;4.25;;
11078;SDS011;5592;49.234;7.268;2023-06-14T08:05:06;4.97;;;4.50;;
11078;SDS011;5592;49.234;7.268;2023-06-14T08:07:33;5.25;;;4.82;;
11078;SDS011;5592;49.234;7.268;2023-06-14T08:09:59;11.52;;;5.35;;
11078;SDS011;5592;49.234;7.268;2023-06-14T08:12:25;5.60;;;4.63;;
11078;SDS011;5592;49.234;7.268;2023-06-14T08:14:51;5.68;;;4.97;;
11078;SDS011;5592;49.234;7.268;2023-06-14T08:17:16;8.90;;;4.70;;
11078;SDS011;5592;49.234;7.268;2023-06-14T08:19:42;7.45;;;4.78;;
11078;SDS011;5592;49.234;7.268;2023-06-14T08:22:08;9.00;;;4.53;;
11078;SDS011;5592;49.234;7.268;2023-06-14T08:24:36;5.47;;;4.20;;
11078;SDS011;5592;49.234;7.268;2023-06-14T08:27:02;6.28;;;4.78;;
11078;SDS011;5592;49.234;7.268;2023-06-14T08:29:28;7.55;;;4.10;;
11078;SDS011;5592;49.234;7.268;2023-06-14T08:31:55;8.65;;;4.35;;
11078;SDS011;5592;49.234;7.268;2023-06-14T08:34:21;6.13;;;4.25;;
11078;SDS011;5592;49.234;7.268;2023-06-14T08:36:49;10.18;;;4.65;;
11078;SDS011;5592;49.234;7.268;2023-06-14T08:39:16;7.25;;;4.60;;
11078;SDS011;5592;49.234;7.268;2023-06-14T08:41:42;6.75;;;4.25;;
11078;SDS011;5592;49.234;7.268;2023-06-14T08:44:14;4.65;;;4.20;;
11078;SDS011;5592;49.234;7.268;2023-06-14T08:46:41;5.53;;;4.28;;
11078;SDS011;5592;49.234;7.268;2023-06-14T08:49:08;5.40;;;4.45;;
11078;SDS011;5592;49.234;7.268;2023-06-14T08:51:37;4.38;;;3.97;;
11078;SDS011;5592;49.234;7.268;2023-06-14T08:54:06;5.85;;;4.50;;
11078;SDS011;5592;49.234;7.268;2023-06-14T08:56:32;4.75;;;3.90;;
11078;SDS011;5592;49.234;7.268;2023-06-14T08:59:01;7.03;;;4.88;;
11078;SDS011;5592;49.234;7.268;2023-06-14T09:01:29;7.20;;;4.57;;
11078;SDS011;5592;49.234;7.268;2023-06-14T09:03:59;5.13;;;4.40;;
11078;SDS011;5592;49.234;7.268;2023-06-14T09:06:25;4.63;;;4.13;;
11078;SDS011;5592;49.234;7.268;2023-06-14T09:08:53;8.80;;;3.80;;
11078;SDS011;5592;49.234;7.268;2023-06-14T09:11:22;9.02;;;4.90;;
11078;SDS011;5592;49.234;7.268;2023-06-14T09:13:48;5.78;;;4.53;;
11078;SDS011;5592;49.234;7.268;2023-06-14T09:16:14;10.40;;;4.15;;
11078;SDS011;5592;49.234;7.268;2023-06-14T09:18:41;7.32;;;4.07;;
11078;SDS011;5592;49.234;7.268;2023-06-14T09:21:12;8.70;;;3.80;;
11078;SDS011;5592;49.234;7.268;2023-06-14T09:23:44;9.45;;;4.05;;
11078;SDS011;5592;49.234;7.268;2023-06-14T09:26:16;7.32;;;4.15;;
11078;SDS011;5592;49.234;7.268;2023-06-14T09:28:44;5.82;;;4.30;;
11078;SDS011;5592;49.234;7.268;2023-06-14T09:31:12;10.00;;;4.65;;
11078;SDS011;5592;49.234;7.268;2023-06-14T09:33:45;8.25;;;4.10;;
11078;SDS011;5592;49.234;7.268;2023-06-14T09:36:22;6.38;;;3.95;;
11078;SDS011;5592;49.234;7.268;2023-06-14T09:38:59;6.18;;;5.00;;
11078;SDS011;5592;49.234;7.268;2023-06-14T09:41:34;5.40;;;4.90;;
11078;SDS011;5592;49.234;7.268;2023-06-14T09:44:02;6.05;;;4.18;;
11078;SDS011;5592;49.234;7.268;2023-06-14T09:46:29;6.00;;;4.70;;
11078;SDS011;5592;49.234;7.268;2023-06-14T09:48:56;10.63;;;4.70;;
11078;SDS011;5592;49.234;7.268;2023-06-14T09:51:25;5.30;;;3.65;;
11078;SDS011;5592;49.234;7.268;2023-06-14T09:53:52;7.93;;;4.22;;
11078;SDS011;5592;49.234;7.268;2023-06-14T09:56:24;12.82;;;3.80;;
11078;SDS011;5592;49.234;7.268;2023-06-14T09:58:56;10.02;;;4.22;;
11078;SDS011;5592;49.234;7.268;2023-06-14T10:01:23;9.80;;;4.50;;
11078;SDS011;5592;49.234;7.268;2023-06-14T10:03:52;10.32;;;4.30;;
11078;SDS011;5592;49.234;7.268;2023-06-14T10:06:22;4.78;;;3.47;;
11078;SDS011;5592;49.234;7.268;2023-06-14T10:08:50;5.65;;;3.75;;
11078;SDS011;5592;49.234;7.268;2023-06-14T10:11:19;6.05;;;4.40;;
11078;SDS011;5592;49.234;7.268;2023-06-14T10:13:45;7.97;;;4.20;;
11078;SDS011;5592;49.234;7.268;2023-06-14T10:24:15;6.90;;;4.43;;
11078;SDS011;5592;49.234;7.268;2023-06-14T10:26:56;6.53;;;3.83;;
11078;SDS011;5592;49.234;7.268;2023-06-14T10:29:23;5.15;;;3.92;;
11078;SDS011;5592;49.234;7.268;2023-06-14T10:31:50;6.88;;;3.45;;
11078;SDS011;5592;49.234;7.268;2023-06-14T10:34:30;5.07;;;3.97;;
11078;SDS011;5592;49.234;7.268;2023-06-14T10:37:00;7.07;;;4.25;;
11078;SDS011;5592;49.234;7.268;2023-06-14T10:39:27;4.72;;;3.92;;
11078;SDS011;5592;49.234;7.268;2023-06-14T10:41:55;6.80;;;4.10;;
11078;SDS011;5592;49.234;7.268;2023-06-14T10:44:30;5.30;;;3.85;;
11078;SDS011;5592;49.234;7.268;2023-06-14T10:47:04;6.70;;;3.58;;
11078;SDS011;5592;49.234;7.268;2023-06-14T10:49:39;10.77;;;3.90;;
11078;SDS011;5592;49.234;7.268;2023-06-14T10:52:13;7.22;;;4.47;;
11078;SDS011;5592;49.234;7.268;2023-06-14T10:54:56;4.35;;;3.72;;
11078;SDS011;5592;49.234;7.268;2023-06-14T10:57:35;6.00;;;3.90;;
11078;SDS011;5592;49.234;7.268;2023-06-14T11:00:03;6.83;;;4.40;;
11078;SDS011;5592;49.234;7.268;2023-06-14T11:02:48;18.00;;;4.60;;
11078;SDS011;5592;49.234;7.268;2023-06-14T11:05:28;5.47;;;3.90;;
11078;SDS011;5592;49.234;7.268;2023-06-14T11:10:43;9.77;;;3.93;;
11078;SDS011;5592;49.234;7.268;2023-06-14T11:13:13;4.97;;;4.47;;
11078;SDS011;5592;49.234;7.268;2023-06-14T11:15:45;8.80;;;3.83;;
11078;SDS011;5592;49.234;7.268;2023-06-14T11:18:14;6.10;;;3.90;;
11078;SDS011;5592;49.234;7.268;2023-06-14T11:20:41;5.40;;;4.00;;
11078;SDS011;5592;49.234;7.268;2023-06-14T11:23:10;4.23;;;3.30;;
11078;SDS011;5592;49.234;7.268;2023-06-14T11:25:35;7.27;;;3.53;;
11078;SDS011;5592;49.234;7.268;2023-06-14T11:28:01;8.40;;;3.60;;
11078;SDS011;5592;49.234;7.268;2023-06-14T11:30:26;5.80;;;3.30;;
11078;SDS011;5592;49.234;7.268;2023-06-14T11:32:53;6.73;;;3.40;;
11078;SDS011;5592;49.234;7.268;2023-06-14T11:35:23;4.23;;;3.40;;
11078;SDS011;5592;49.234;7.268;2023-06-14T11:37:56;5.47;;;3.43;;
11078;SDS011;5592;49.234;7.268;2023-06-14T11:40:25;5.20;;;3.40;;
11078;SDS011;5592;49.234;7.268;2023-06-14T11:42:57;4.43;;;3.47;;
11078;SDS011;5592;49.234;7.268;2023-06-14T11:45:24;6.63;;;4.10;;
11078;SDS011;5592;49.234;7.268;2023-06-14T11:47:50;6.93;;;3.13;;
11078;SDS011;5592;49.234;7.268;2023-06-14T11:50:16;5.00;;;3.30;;
11078;SDS011;5592;49.234;7.268;2023-06-14T11:52:44;5.53;;;2.90;;
11078;SDS011;5592;49.234;7.268;2023-06-14T11:55:16;4.50;;;3.10;;
11078;SDS011;5592;49.234;7.268;2023-06-14T11:57:43;11.93;;;3.80;;
11078;SDS011;5592;49.234;7.268;2023-06-14T12:00:08;4.13;;;3.07;;
11078;SDS011;5592;49.234;7.268;2023-06-14T12:02:37;5.17;;;3.23;;
11078;SDS011;5592;49.234;7.268;2023-06-14T12:05:05;3.23;;;2.93;;
11078;SDS011;5592;49.234;7.268;2023-06-14T12:07:37;4.70;;;3.00;;
11078;SDS011;5592;49.234;7.268;2023-06-14T12:10:05;3.57;;;3.23;;
11078;SDS011;5592;49.234;7.268;2023-06-14T12:12:36;4.87;;;3.20;;
11078;SDS011;5592;49.234;7.268;2023-06-14T12:15:04;7.10;;;3.63;;
11078;SDS011;5592;49.234;7.268;2023-06-14T12:17:37;3.60;;;3.03;;
11078;SDS011;5592;49.234;7.268;2023-06-14T12:20:07;3.73;;;2.93;;
11078;SDS011;5592;49.234;7.268;2023-06-14T12:22:51;3.23;;;2.90;;
11078;SDS011;5592;49.234;7.268;2023-06-14T12:25:23;4.73;;;3.10;;
11078;SDS011;5592;49.234;7.268;2023-06-14T12:27:53;3.50;;;2.90;;
11078;SDS011;5592;49.234;7.268;2023-06-14T12:30:20;6.77;;;3.20;;
11078;SDS011;5592;49.234;7.268;2023-06-14T12:32:45;5.90;;;3.27;;
11078;SDS011;5592;49.234;7.268;2023-06-14T12:35:11;7.67;;;3.27;;
11078;SDS011;5592;49.234;7.268;2023-06-14T12:37:37;5.90;;;3.07;;
11078;SDS011;5592;49.234;7.268;2023-06-14T12:40:03;4.97;;;2.90;;
11078;SDS011;5592;49.234;7.268;2023-06-14T12:42:30;11.57;;;3.93;;
11078;SDS011;5592;49.234;7.268;2023-06-14T12:44:56;3.60;;;3.10;;
11078;SDS011;5592;49.234;7.268;2023-06-14T12:47:23;3.70;;;3.07;;
11078;SDS011;5592;49.234;7.268;2023-06-14T12:49:49;3.77;;;3.20;;
11078;SDS011;5592;49.234;7.268;2023-06-14T12:52:15;3.03;;;2.70;;
11078;SDS011;5592;49.234;7.268;2023-06-14T12:54:41;3.53;;;3.23;;
11078;SDS011;5592;49.234;7.268;2023-06-14T12:57:06;5.13;;;2.80;;
11078;SDS011;5592;49.234;7.268;2023-06-14T12:59:32;6.27;;;3.33;;
11078;SDS011;5592;49.234;7.268;2023-06-14T13:02:14;4.60;;;2.70;;
11078;SDS011;5592;49.234;7.268;2023-06-14T13:04:41;5.97;;;2.80;;
11078;SDS011;5592;49.234;7.268;2023-06-14T13:07:07;5.50;;;3.00;;
11078;SDS011;5592;49.234;7.268;2023-06-14T13:09:33;3.50;;;2.17;;
11078;SDS011;5592;49.234;7.268;2023-06-14T13:11:58;4.87;;;2.87;;
11078;SDS011;5592;49.234;7.268;2023-06-14T13:14:24;7.33;;;2.30;;
11078;SDS011;5592;49.234;7.268;2023-06-14T13:16:50;3.80;;;2.77;;
11078;SDS011;5592;49.234;7.268;2023-06-14T13:19:15;3.93;;;2.50;;
11078;SDS011;5592;49.234;7.268;2023-06-14T13:21:41;5.13;;;2.73;;
11078;SDS011;5592;49.234;7.268;2023-06-14T13:24:07;3.67;;;2.97;;
11078;SDS011;5592;49.234;7.268;2023-06-14T13:26:33;5.93;;;2.60;;
11078;SDS011;5592;49.234;7.268;2023-06-14T13:28:59;5.57;;;2.20;;
11078;SDS011;5592;49.234;7.268;2023-06-14T13:31:25;3.73;;;2.83;;
11078;SDS011;5592;49.234;7.268;2023-06-14T13:33:50;2.80;;;2.30;;
11078;SDS011;5592;49.234;7.268;2023-06-14T13:36:16;4.33;;;2.83;;
11078;SDS011;5592;49.234;7.268;2023-06-14T13:38:44;4.00;;;2.80;;
11078;SDS011;5592;49.234;7.268;2023-06-14T13:41:15;2.70;;;2.43;;
11078;SDS011;5592;49.234;7.268;2023-06-14T13:43:40;3.20;;;2.90;;
11078;SDS011;5592;49.234;7.268;2023-06-14T13:46:06;4.30;;;3.20;;
11078;SDS011;5592;49.234;7.268;2023-06-14T13:48:31;4.43;;;2.60;;
11078;SDS011;5592;49.234;7.268;2023-06-14T13:50:59;3.53;;;2.37;;
11078;SDS011;5592;49.234;7.268;2023-06-14T13:53:25;5.70;;;2.80;;
11078;SDS011;5592;49.234;7.268;2023-06-14T13:55:50;6.33;;;2.50;;
11078;SDS011;5592;49.234;7.268;2023-06-14T13:58:19;5.03;;;2.40;;
11078;SDS011;5592;49.234;7.268;2023-06-14T14:00:45;3.37;;;2.27;;
11078;SDS011;5592;49.234;7.268;2023-06-14T14:03:11;4.00;;;2.10;;
11078;SDS011;5592;49.234;7.268;2023-06-14T14:05:36;4.87;;;3.13;;
11078;SDS011;5592;49.234;7.268;2023-06-14T14:08:02;6.27;;;2.73;;
11078;SDS011;5592;49.234;7.268;2023-06-14T14:10:29;4.47;;;2.60;;
11078;SDS011;5592;49.234;7.268;2023-06-14T14:12:54;11.93;;;2.67;;
11078;SDS011;5592;49.234;7.268;2023-06-14T14:15:21;6.80;;;2.50;;
11078;SDS011;5592;49.234;7.268;2023-06-14T14:17:47;3.23;;;2.00;;
11078;SDS011;5592;49.234;7.268;2023-06-14T14:20:13;3.87;;;2.30;;
11078;SDS011;5592;49.234;7.268;2023-06-14T14:22:41;2.40;;;2.20;;
11078;SDS011;5592;49.234;7.268;2023-06-14T14:25:07;3.83;;;2.33;;
11078;SDS011;5592;49.234;7.268;2023-06-14T14:27:33;4.57;;;2.43;;
11078;SDS011;5592;49.234;7.268;2023-06-14T14:29:59;3.33;;;2.90;;
11078;SDS011;5592;49.234;7.268;2023-06-14T14:32:25;2.50;;;2.30;;
11078;SDS011;5592;49.234;7.268;2023-06-14T14:34:51;3.20;;;2.20;;
11078;SDS011;5592;49.234;7.268;2023-06-14T14:37:16;5.50;;;2.30;;
11078;SDS011;5592;49.234;7.268;2023-06-14T14:39:43;5.27;;;2.43;;
11078;SDS011;5592;49.234;7.268;2023-06-14T14:42:09;3.47;;;2.00;;
11078;SDS011;5592;49.234;7.268;2023-06-14T14:44:37;9.70;;;2.27;;
11078;SDS011;5592;49.234;7.268;2023-06-14T14:47:03;2.50;;;2.07;;
11078;SDS011;5592;49.234;7.268;2023-06-14T14:49:29;3.30;;;2.67;;
11078;SDS011;5592;49.234;7.268;2023-06-14T14:51:55;3.50;;;1.90;;
11078;SDS011;5592;49.234;7.268;2023-06-14T14:54:21;2.97;;;2.13;;
11078;SDS011;5592;49.234;7.268;2023-06-14T14:56:48;3.37;;;2.53;;
11078;SDS011;5592;49.234;7.268;2023-06-14T14:59:14;3.97;;;1.90;;
11078;SDS011;5592;49.234;7.268;2023-06-14T15:01:39;3.63;;;2.20;;
11078;SDS011;5592;49.234;7.268;2023-06-14T15:04:05;2.80;;;2.13;;
11078;SDS011;5592;49.234;7.268;2023-06-14T15:06:31;2.60;;;2.10;;
11078;SDS011;5592;49.234;7.268;2023-06-14T15:08:57;3.37;;;2.47;;
11078;SDS011;5592;49.234;7.268;2023-06-14T15:11:22;2.17;;;1.90;;
11078;SDS011;5592;49.234;7.268;2023-06-14T15:13:48;5.30;;;2.10;;
11078;SDS011;5592;49.234;7.268;2023-06-14T15:16:14;4.23;;;2.20;;
11078;SDS011;5592;49.234;7.268;2023-06-14T15:18:42;2.70;;;2.10;;